Time;durP1;ratioP1;P1;durP2;ratioP2;P2;SDS_P1;SDS_P2;PMS_P1;PMS_P2;Temp;Humidity;BMP_temperature;BMP_pressure;BME280_temperature;BME280_humidity;BME280_pressure;Samples;Min_cycle;Max_cycle;Signal;HPM_P1;HPM_P2
2021/08/23 00:26:19;;;;;;;4.70;4.30;;;18.20;99.90;;;;;;10558007;28;20306;-84
2021/08/23 00:31:23;;;;;;;5.97;4.07;;;18.20;99.90;;;;;;10500455;28;20273;-84
2021/08/23 01:13:28;;;;;;;3.60;3.33;;;18.20;99.90;;;;;;10546676;28;20230;-84
2021/08/23 01:19:14;;;;;;;3.90;3.60;;;18.20;99.90;;;;;;10529263;28;20683;-83
2021/08/23 02:33:58;;;;;;;4.10;3.80;;;18.30;99.90;;;;;;10553269;28;20793;-84
2021/08/23 03:15:16;;;;;;;3.50;3.30;;;18.40;99.90;;;;;;10532516;28;20605;-84
2021/08/23 03:32:18;;;;;;;5.27;4.73;;;18.40;99.90;;;;;;10544922;28;20219;-84
2021/08/23 03:43:56;;;;;;;4.13;3.70;;;18.30;99.90;;;;;;10532621;28;20231;-84
2021/08/23 04:27:15;;;;;;;3.57;3.27;;;18.30;99.90;;;;;;10573302;28;20206;-84
2021/08/23 04:32:20;;;;;;;5.53;3.53;;;18.30;99.90;;;;;;10554621;28;20231;-84
2021/08/23 04:37:32;;;;;;;5.00;3.70;;;18.40;99.90;;;;;;10531951;28;20223;-83
2021/08/23 04:42:35;;;;;;;3.57;3.27;;;18.40;99.90;;;;;;10543466;28;20269;-85
2021/08/23 04:47:40;;;;;;;4.67;4.00;;;18.40;99.90;;;;;;10490722;28;20207;-85
2021/08/23 04:58:37;;;;;;;4.60;4.20;;;18.50;99.90;;;;;;10540510;28;20284;-84
2021/08/23 05:03:40;;;;;;;4.70;4.30;;;18.50;99.90;;;;;;10515833;28;20203;-83
2021/08/23 05:08:43;;;;;;;4.10;3.80;;;18.40;99.90;;;;;;10535974;28;20197;-83
2021/08/23 05:13:45;;;;;;;4.97;4.50;;;18.30;99.90;;;;;;10575051;28;20690;-84
2021/08/23 05:18:47;;;;;;;4.73;4.43;;;18.20;99.90;;;;;;10573553;28;20222;-82
2021/08/23 05:23:51;;;;;;;4.30;4.00;;;18.20;99.90;;;;;;10584696;28;20222;-82
2021/08/23 05:28:53;;;;;;;5.60;4.10;;;18.10;99.90;;;;;;10592135;28;20203;-82
2021/08/23 05:33:55;;;;;;;4.67;4.27;;;18.10;99.90;;;;;;10591938;28;20226;-82
2021/08/23 05:38:58;;;;;;;5.27;4.77;;;18.20;99.90;;;;;;10537246;28;20284;-82
2021/08/23 05:44:00;;;;;;;4.83;4.43;;;18.20;99.90;;;;;;10575570;28;20225;-83
2021/08/23 05:49:02;;;;;;;4.73;4.33;;;18.30;99.90;;;;;;10577784;28;20207;-83
2021/08/23 05:54:07;;;;;;;5.23;4.73;;;18.30;99.90;;;;;;10525593;22;20649;-85
2021/08/23 05:59:10;;;;;;;4.80;4.40;;;18.40;99.90;;;;;;10425724;28;20209;-84
2021/08/23 06:04:12;;;;;;;4.97;4.50;;;18.40;99.90;;;;;;10424210;28;20712;-86
2021/08/23 06:09:16;;;;;;;5.23;4.50;;;18.40;99.90;;;;;;10425952;28;20278;-85
2021/08/23 06:14:19;;;;;;;6.20;4.90;;;18.50;99.90;;;;;;10422798;28;20286;-85
2021/08/23 06:19:21;;;;;;;5.83;5.33;;;18.70;99.90;;;;;;10423070;28;20209;-85
2021/08/23 06:24:24;;;;;;;7.30;5.03;;;18.90;99.90;;;;;;10438366;28;20217;-84
2021/08/23 06:29:27;;;;;;;5.63;5.07;;;19.00;99.90;;;;;;10437465;28;20209;-83
2021/08/23 06:34:29;;;;;;;6.77;4.23;;;19.10;99.90;;;;;;10437354;28;20239;-82
2021/08/23 06:39:32;;;;;;;4.47;4.07;;;19.20;99.90;;;;;;10421543;28;20205;-82
2021/08/23 06:44:34;;;;;;;5.53;4.30;;;19.20;99.90;;;;;;10455637;28;20716;-83
2021/08/23 06:49:36;;;;;;;6.20;4.67;;;19.30;99.90;;;;;;10454566;28;20201;-83
2021/08/23 06:54:40;;;;;;;5.10;4.60;;;19.40;99.90;;;;;;10437631;28;20224;-84
2021/08/23 06:59:42;;;;;;;4.90;4.07;;;19.40;99.90;;;;;;10438671;28;20201;-83
2021/08/23 07:04:49;;;;;;;5.20;4.70;;;19.50;99.90;;;;;;10455030;28;20225;-82
2021/08/23 07:09:53;;;;;;;4.60;4.20;;;19.60;99.90;;;;;;10421805;28;20224;-82
2021/08/23 07:14:55;;;;;;;4.63;4.23;;;19.70;99.90;;;;;;10420664;28;20602;-83
2021/08/23 07:19:57;;;;;;;7.23;4.57;;;19.80;99.90;;;;;;10437332;28;20199;-82
2021/08/23 07:25:01;;;;;;;4.83;3.90;;;19.80;99.90;;;;;;10435875;28;20308;-82
2021/08/23 07:30:04;;;;;;;5.40;4.90;;;19.80;99.90;;;;;;10436501;28;20691;-83
2021/08/23 07:35:08;;;;;;;4.47;4.17;;;19.90;99.90;;;;;;10420558;28;20617;-82
2021/08/23 07:40:13;;;;;;;4.80;4.40;;;19.90;99.90;;;;;;10437510;28;20239;-83
2021/08/23 07:45:17;;;;;;;4.77;4.20;;;19.90;99.90;;;;;;10439885;28;20236;-82
2021/08/23 07:50:19;;;;;;;4.80;4.40;;;20.10;99.90;;;;;;10439050;28;20288;-83
2021/08/23 07:55:23;;;;;;;4.13;3.83;;;20.30;99.90;;;;;;10456436;28;20228;-84
2021/08/23 08:00:25;;;;;;;4.03;3.83;;;20.50;99.90;;;;;;10439551;28;20205;-84
2021/08/23 08:05:27;;;;;;;4.47;4.17;;;20.60;99.90;;;;;;10421924;28;20244;-83
2021/08/23 08:10:31;;;;;;;4.87;4.47;;;20.60;99.90;;;;;;10439280;28;20239;-84
2021/08/23 08:15:34;;;;;;;4.50;4.17;;;20.60;99.90;;;;;;10421400;28;20233;-85
2021/08/23 08:20:36;;;;;;;4.87;4.47;;;20.50;99.90;;;;;;10439276;28;20252;-84
2021/08/23 08:25:39;;;;;;;4.77;4.40;;;20.50;99.90;;;;;;10430678;28;20312;-84
2021/08/23 08:30:42;;;;;;;4.57;4.27;;;20.50;99.90;;;;;;10439511;28;20206;-84
2021/08/23 08:35:44;;;;;;;8.10;4.73;;;20.60;99.90;;;;;;10458561;28;20221;-84
2021/08/23 08:40:49;;;;;;;3.67;3.47;;;20.50;99.90;;;;;;10454751;28;20322;-85
2021/08/23 08:45:52;;;;;;;4.70;4.30;;;20.50;99.90;;;;;;10435699;28;20221;-85
2021/08/23 08:50:54;;;;;;;4.40;4.00;;;20.50;99.90;;;;;;10466863;28;20291;-85
2021/08/23 08:55:57;;;;;;;4.10;3.73;;;20.50;99.90;;;;;;10448504;28;20260;-84
2021/08/23 09:01:01;;;;;;;4.37;4.07;;;20.50;99.90;;;;;;10449348;28;20231;-83
2021/08/23 09:06:05;;;;;;;4.80;4.27;;;20.50;99.90;;;;;;10433022;28;20244;-86
2021/08/23 09:11:12;;;;;;;4.13;3.87;;;20.60;99.90;;;;;;10437205;28;20243;-82
2021/08/23 09:16:14;;;;;;;4.30;3.93;;;20.70;99.90;;;;;;10426662;28;20220;-83
2021/08/23 09:21:16;;;;;;;3.90;3.60;;;20.80;99.90;;;;;;10442088;28;20646;-83
2021/08/23 09:26:20;;;;;;;3.73;3.53;;;21.00;99.90;;;;;;10429310;28;20611;-83
2021/08/23 09:31:25;;;;;;;5.40;3.60;;;21.20;99.90;;;;;;10441428;28;20189;-84
2021/08/23 09:36:28;;;;;;;3.67;3.47;;;21.40;99.90;;;;;;10441029;28;20279;-83
2021/08/23 09:41:33;;;;;;;4.07;3.50;;;21.50;99.90;;;;;;10441737;28;20190;-83
2021/08/23 09:46:36;;;;;;;6.50;3.80;;;21.70;99.90;;;;;;10433955;28;20589;-83
2021/08/23 09:51:40;;;;;;;6.53;4.07;;;21.90;99.90;;;;;;10413773;28;20200;-84
2021/08/23 09:56:45;;;;;;;4.23;3.73;;;22.20;99.90;;;;;;10440756;28;20224;-83
2021/08/23 10:01:49;;;;;;;4.23;3.93;;;22.40;99.90;;;;;;10415799;28;20219;-83
2021/08/23 10:06:53;;;;;;;4.47;3.80;;;22.30;99.90;;;;;;10425740;28;20217;-82
2021/08/23 10:11:58;;;;;;;4.40;4.00;;;22.00;99.90;;;;;;10414814;28;20292;-83
2021/08/23 10:17:01;;;;;;;5.00;4.50;;;21.80;99.90;;;;;;10405061;28;20235;-83
2021/08/23 10:22:04;;;;;;;4.97;4.40;;;21.60;99.90;;;;;;10436479;28;20201;-84
2021/08/23 10:27:08;;;;;;;5.33;4.87;;;21.30;99.90;;;;;;10414490;28;20221;-82
2021/08/23 10:32:12;;;;;;;5.30;4.80;;;21.20;99.90;;;;;;10421636;28;20197;-82
2021/08/23 10:37:19;;;;;;;5.63;4.63;;;21.20;99.90;;;;;;10456034;28;20587;-84
2021/08/23 10:42:23;;;;;;;4.70;4.40;;;21.40;99.90;;;;;;10426783;28;20206;-84
2021/08/23 10:47:31;;;;;;;4.70;4.30;;;21.60;99.90;;;;;;10443843;28;20221;-83
2021/08/23 10:52:36;;;;;;;4.77;4.30;;;21.80;99.90;;;;;;10425002;28;20244;-84
2021/08/23 10:57:39;;;;;;;4.57;4.27;;;21.80;99.90;;;;;;10428661;28;20240;-86
2021/08/23 11:02:42;;;;;;;4.10;3.70;;;21.90;99.90;;;;;;10442488;28;20224;-86
2021/08/23 11:07:48;;;;;;;3.93;3.53;;;22.10;99.90;;;;;;10444215;28;20288;-85
2021/08/23 11:12:54;;;;;;;3.20;3.00;;;22.30;99.90;;;;;;10443637;28;20228;-86
2021/08/23 11:17:59;;;;;;;3.63;3.43;;;22.20;99.90;;;;;;10444720;28;20707;-85
2021/08/23 11:23:03;;;;;;;3.70;3.50;;;21.90;99.90;;;;;;10439053;28;20229;-85
2021/08/23 11:28:09;;;;;;;4.23;3.90;;;21.70;99.90;;;;;;10446899;28;20660;-86
2021/08/23 11:33:13;;;;;;;6.00;3.80;;;21.70;99.90;;;;;;10448700;28;20213;-84
2021/08/23 11:38:15;;;;;;;4.87;3.57;;;21.80;99.90;;;;;;10423729;28;20276;-85
2021/08/23 11:43:19;;;;;;;3.57;3.27;;;21.80;99.90;;;;;;10424074;28;20600;-84
2021/08/23 11:48:21;;;;;;;3.37;3.17;;;21.90;99.90;;;;;;10440816;28;20205;-83
2021/08/23 11:53:24;;;;;;;3.27;3.10;;;22.00;99.90;;;;;;10419565;28;20232;-84
2021/08/23 11:58:37;;;;;;;3.27;3.07;;;22.00;99.90;;;;;;10431108;28;20247;-83
2021/08/23 12:03:39;;;;;;;4.00;2.73;;;22.10;99.90;;;;;;10407658;28;20334;-85
2021/08/23 12:08:42;;;;;;;3.47;3.17;;;22.10;99.90;;;;;;10420834;28;20197;-86
2021/08/23 12:13:47;;;;;;;3.43;3.23;;;21.90;99.90;;;;;;10443785;28;20227;-85
2021/08/23 12:18:50;;;;;;;2.83;2.63;;;21.90;99.90;;;;;;10462425;28;20239;-86
2021/08/23 12:23:57;;;;;;;3.37;3.17;;;21.70;99.90;;;;;;10426739;28;20312;-85
2021/08/23 12:29:14;;;;;;;3.70;3.40;;;21.80;99.90;;;;;;10444111;28;20642;-85
2021/08/23 12:34:18;;;;;;;3.37;3.17;;;21.80;99.90;;;;;;10443996;28;20244;-85
2021/08/23 12:39:22;;;;;;;2.53;2.37;;;21.70;99.90;;;;;;10428691;28;20205;-86
2021/08/23 12:44:25;;;;;;;2.87;2.67;;;21.70;99.90;;;;;;10444613;28;20228;-86
2021/08/23 12:49:27;;;;;;;3.23;3.03;;;21.70;99.90;;;;;;10443348;28;20201;-85
2021/08/23 12:54:30;;;;;;;2.20;2.10;;;21.60;99.90;;;;;;10427493;28;20240;-86
2021/08/23 12:59:34;;;;;;;3.00;2.90;;;21.50;99.90;;;;;;10443087;28;20207;-86
2021/08/23 13:04:36;;;;;;;2.73;2.53;;;21.60;99.90;;;;;;10460207;28;20252;-86
2021/08/23 13:09:38;;;;;;;2.93;2.70;;;21.80;99.90;;;;;;10443826;28;20605;-86
2021/08/23 13:14:42;;;;;;;3.60;3.30;;;21.90;99.90;;;;;;10443144;28;20231;-86
2021/08/23 13:19:44;;;;;;;3.23;2.90;;;22.00;99.90;;;;;;10443448;28;20228;-86
2021/08/23 13:24:46;;;;;;;3.20;2.90;;;21.90;99.90;;;;;;10443335;28;20220;-86
2021/08/23 13:29:49;;;;;;;2.80;2.60;;;22.00;99.90;;;;;;10427319;28;20205;-86
2021/08/23 13:34:51;;;;;;;3.87;3.30;;;22.10;99.90;;;;;;10426130;28;20233;-86
2021/08/23 13:39:54;;;;;;;2.80;2.60;;;22.10;99.90;;;;;;10443672;28;20235;-86
2021/08/23 13:44:57;;;;;;;3.27;3.07;;;22.00;99.90;;;;;;10425497;28;20697;-86
2021/08/23 13:50:08;;;;;;;4.17;3.20;;;22.00;99.90;;;;;;10419636;28;20293;-85
2021/08/23 13:55:10;;;;;;;3.13;2.93;;;22.10;99.90;;;;;;10440648;28;20720;-86
2021/08/23 14:00:15;;;;;;;3.33;3.13;;;22.20;99.90;;;;;;10426332;28;20267;-85
2021/08/23 14:05:17;;;;;;;3.23;2.90;;;22.30;99.90;;;;;;10428492;28;20688;-85
2021/08/23 14:10:19;;;;;;;3.30;3.10;;;22.30;99.90;;;;;;10422917;28;20240;-85
2021/08/23 14:15:22;;;;;;;4.13;3.80;;;22.30;99.90;;;;;;10422823;28;20316;-85
2021/08/23 14:20:24;;;;;;;3.80;3.20;;;22.40;99.90;;;;;;10439362;28;20280;-85
2021/08/23 14:25:27;;;;;;;3.60;3.30;;;22.50;99.90;;;;;;10422127;28;20225;-85
2021/08/23 14:30:30;;;;;;;3.57;3.37;;;22.30;99.90;;;;;;10437908;28;20189;-85
2021/08/23 14:35:32;;;;;;;4.80;4.50;;;22.10;99.90;;;;;;10439598;28;20268;-85
2021/08/23 14:40:34;;;;;;;4.03;3.77;;;22.00;99.90;;;;;;10424320;28;20228;-86
2021/08/23 14:45:38;;;;;;;4.33;3.93;;;22.00;99.90;;;;;;10421669;28;20225;-86
2021/08/23 14:50:41;;;;;;;3.93;3.63;;;22.00;99.90;;;;;;10421479;28;20201;-85
2021/08/23 14:55:43;;;;;;;4.40;4.10;;;22.10;99.90;;;;;;10420636;28;20229;-85
2021/08/23 15:00:47;;;;;;;4.73;4.33;;;22.20;99.90;;;;;;10421044;28;20215;-85
2021/08/23 15:05:49;;;;;;;4.27;4.00;;;22.20;99.90;;;;;;10419534;28;20263;-85
2021/08/23 15:10:52;;;;;;;3.83;3.60;;;22.20;99.90;;;;;;10420597;28;20205;-85
2021/08/23 15:15:56;;;;;;;4.07;3.77;;;22.20;99.90;;;;;;10419619;28;20229;-85
2021/08/23 15:20:58;;;;;;;3.70;3.50;;;22.30;99.90;;;;;;10419826;28;20229;-85
2021/08/23 15:26:00;;;;;;;4.30;4.00;;;22.50;99.90;;;;;;10428670;28;20266;-85
2021/08/23 15:31:14;;;;;;;3.80;3.50;;;22.50;99.90;;;;;;10455147;28;20584;-86
2021/08/23 15:36:16;;;;;;;4.57;3.93;;;22.60;99.90;;;;;;10419639;28;20252;-85
2021/08/23 15:41:19;;;;;;;3.80;3.50;;;22.60;99.90;;;;;;10419979;28;20205;-86
2021/08/23 15:46:22;;;;;;;3.97;3.53;;;22.60;99.90;;;;;;10437081;28;20244;-85
2021/08/23 15:51:25;;;;;;;3.90;3.60;;;22.60;99.90;;;;;;10420248;28;20243;-86
2021/08/23 15:56:28;;;;;;;4.13;3.83;;;22.60;99.90;;;;;;10419895;28;20233;-86
2021/08/23 16:01:32;;;;;;;4.03;3.73;;;22.60;99.90;;;;;;10420107;28;20205;-85
2021/08/23 16:06:35;;;;;;;3.40;3.20;;;22.70;99.90;;;;;;10435398;28;20291;-85
2021/08/23 16:11:37;;;;;;;5.17;4.77;;;22.60;99.90;;;;;;10421541;28;20278;-85
2021/08/23 16:16:40;;;;;;;5.90;5.40;;;22.50;99.90;;;;;;10419213;28;20283;-85
2021/08/23 16:21:43;;;;;;;5.93;5.53;;;22.20;99.90;;;;;;10415327;28;20247;-85
2021/08/23 16:26:46;;;;;;;6.60;6.10;;;21.90;99.90;;;;;;10419193;28;20221;-85
2021/08/23 16:31:50;;;;;;;7.20;6.60;;;21.50;99.90;;;;;;10435189;28;20201;-85
2021/08/23 16:36:54;;;;;;;7.80;7.23;;;21.10;99.90;;;;;;10418037;28;20232;-86
2021/08/23 16:41:58;;;;;;;7.80;7.27;;;20.90;99.90;;;;;;10436507;28;20233;-86
2021/08/23 16:47:02;;;;;;;8.60;8.00;;;20.80;99.90;;;;;;10417451;28;20247;-86
2021/08/23 16:52:04;;;;;;;9.47;8.77;;;20.70;99.90;;;;;;10410931;28;20220;-85
2021/08/23 16:57:06;;;;;;;8.60;8.00;;;20.70;99.90;;;;;;10441532;28;20228;-85
2021/08/23 17:02:10;;;;;;;7.23;6.73;;;20.60;99.90;;;;;;10449125;28;20636;-86
2021/08/23 17:07:24;;;;;;;8.87;8.07;;;20.60;99.90;;;;;;10422253;28;20229;-85
2021/08/23 17:12:26;;;;;;;8.70;8.10;;;20.60;99.90;;;;;;10444181;28;20225;-84
2021/08/23 17:17:30;;;;;;;7.10;6.50;;;20.60;99.90;;;;;;10422430;28;20256;-87
2021/08/23 17:22:32;;;;;;;8.80;8.00;;;20.60;99.90;;;;;;10447945;28;20259;-85
2021/08/23 17:27:34;;;;;;;8.97;8.27;;;20.50;99.90;;;;;;10434076;28;20212;-87
2021/08/23 17:32:38;;;;;;;10.83;9.87;;;20.50;99.90;;;;;;10447032;28;20216;-85
2021/08/23 17:37:40;;;;;;;9.10;8.37;;;20.50;99.90;;;;;;10433750;28;20228;-85
2021/08/23 17:42:42;;;;;;;10.47;9.57;;;20.50;99.90;;;;;;10432871;28;20239;-85
2021/08/23 17:47:46;;;;;;;9.70;9.00;;;20.40;99.90;;;;;;10450808;28;20288;-85
2021/08/23 17:52:48;;;;;;;11.33;10.37;;;20.30;99.90;;;;;;10492075;22;20279;-83
2021/08/23 17:57:50;;;;;;;12.57;11.57;;;20.30;99.90;;;;;;10506137;28;20298;-82
2021/08/23 18:02:54;;;;;;;11.10;10.20;;;20.30;99.90;;;;;;10506413;28;20235;-82
2021/08/23 18:07:56;;;;;;;11.97;11.07;;;20.30;99.90;;;;;;10523855;28;20631;-83
2021/08/23 18:12:58;;;;;;;11.63;10.03;;;20.10;99.90;;;;;;10528160;28;20655;-83
2021/08/23 18:18:01;;;;;;;11.17;10.07;;;20.00;99.90;;;;;;10541376;28;20268;-84
2021/08/23 18:23:03;;;;;;;10.33;9.63;;;19.80;99.90;;;;;;10516755;28;20262;-84
2021/08/23 18:28:06;;;;;;;9.87;9.20;;;19.70;99.90;;;;;;10506709;28;20214;-85
2021/08/23 18:33:09;;;;;;;10.70;9.90;;;19.60;99.90;;;;;;10521314;28;20715;-84
2021/08/23 18:38:12;;;;;;;11.47;10.53;;;19.60;99.90;;;;;;10504677;28;20288;-84
2021/08/23 18:43:14;;;;;;;11.97;11.00;;;19.60;99.90;;;;;;10521738;28;20219;-84
2021/08/23 18:48:17;;;;;;;13.87;12.67;;;19.60;99.90;;;;;;10503166;28;20231;-84
2021/08/23 18:53:19;;;;;;;11.30;10.40;;;19.60;99.90;;;;;;10502540;28;20295;-84
2021/08/23 18:58:22;;;;;;;11.80;10.90;;;19.60;99.90;;;;;;10504862;28;20230;-84
2021/08/23 19:03:26;;;;;;;11.83;10.83;;;19.60;99.90;;;;;;10519154;28;20247;-85
2021/08/23 19:08:28;;;;;;;11.53;10.63;;;19.60;99.90;;;;;;10506442;28;20200;-84
2021/08/23 19:13:30;;;;;;;10.90;10.00;;;19.70;99.90;;;;;;10495818;28;20216;-84
2021/08/23 19:18:34;;;;;;;11.20;10.20;;;19.70;99.90;;;;;;10496074;28;20247;-84
2021/08/23 19:23:36;;;;;;;10.60;9.70;;;19.60;99.90;;;;;;10541745;28;20292;-84
2021/08/23 19:28:38;;;;;;;12.30;11.30;;;19.70;99.90;;;;;;10516107;28;20215;-84
2021/08/23 19:33:43;;;;;;;12.90;11.90;;;19.70;99.90;;;;;;10498268;28;20223;-84
2021/08/23 19:38:45;;;;;;;15.03;13.60;;;19.70;99.90;;;;;;10506467;28;20223;-84
2021/08/23 19:43:47;;;;;;;17.47;15.97;;;19.70;99.90;;;;;;10507119;28;20514;-84
2021/08/23 19:48:51;;;;;;;17.33;15.93;;;19.50;99.90;;;;;;10523091;28;20278;-84
2021/08/23 19:53:53;;;;;;;17.00;15.70;;;19.20;99.90;;;;;;10521263;28;20238;-84
2021/08/23 19:59:01;;;;;;;16.80;15.60;;;19.00;99.90;;;;;;10501488;28;20238;-84
2021/08/23 20:04:04;;;;;;;14.17;13.13;;;18.80;99.90;;;;;;10542166;28;20330;-84
2021/08/23 20:09:06;;;;;;;13.20;12.27;;;18.70;99.90;;;;;;10504224;28;20302;-84
2021/08/23 20:14:19;;;;;;;12.73;11.83;;;18.60;99.90;;;;;;10537678;28;20224;-84
2021/08/23 20:19:21;;;;;;;11.70;10.90;;;18.50;99.90;;;;;;10532196;28;20200;-84
2021/08/23 20:24:24;;;;;;;11.70;10.80;;;18.50;99.90;;;;;;10498872;28;20362;-84
2021/08/23 20:29:27;;;;;;;10.63;9.80;;;18.40;99.90;;;;;;10500781;28;20212;-84
2021/08/23 20:34:33;;;;;;;11.87;10.97;;;18.40;99.90;;;;;;10507027;28;20251;-84
2021/08/23 20:39:36;;;;;;;12.37;11.47;;;18.40;99.90;;;;;;10521955;28;20583;-84
2021/08/23 20:44:41;;;;;;;12.00;11.13;;;18.50;99.90;;;;;;10519004;28;20215;-84
2021/08/23 20:49:45;;;;;;;11.47;10.67;;;18.50;99.90;;;;;;10537704;28;20211;-84
2021/08/23 20:54:48;;;;;;;11.80;10.90;;;18.60;99.90;;;;;;10545134;28;20227;-84
2021/08/23 20:59:51;;;;;;;12.17;11.27;;;18.60;99.90;;;;;;10522359;28;20569;-84
2021/08/23 21:04:53;;;;;;;13.93;12.60;;;18.60;99.90;;;;;;10547849;28;20212;-84
2021/08/23 21:09:55;;;;;;;11.93;11.13;;;18.60;99.90;;;;;;10514983;28;20211;-85
2021/08/23 21:14:59;;;;;;;11.57;10.77;;;18.60;99.90;;;;;;10539321;28;20228;-84
2021/08/23 21:20:01;;;;;;;11.40;10.50;;;18.60;99.90;;;;;;10495619;28;20637;-84
2021/08/23 21:25:04;;;;;;;12.20;11.10;;;18.60;99.90;;;;;;10528061;28;20212;-84
2021/08/23 21:30:09;;;;;;;11.63;10.73;;;18.60;99.90;;;;;;10530451;28;20203;-83
2021/08/23 21:35:13;;;;;;;11.20;10.40;;;18.60;99.90;;;;;;10514044;28;20283;-84
2021/08/23 21:40:15;;;;;;;11.47;10.47;;;18.50;99.90;;;;;;10548331;28;20295;-84
2021/08/23 21:45:19;;;;;;;11.67;10.73;;;18.50;99.90;;;;;;10529870;28;20223;-84
2021/08/23 21:50:22;;;;;;;11.77;10.77;;;18.50;99.90;;;;;;10514020;28;20200;-84
2021/08/23 21:55:24;;;;;;;10.40;9.70;;;18.50;99.90;;;;;;10518622;28;20216;-83
2021/08/23 22:00:30;;;;;;;10.27;9.47;;;18.40;99.90;;;;;;10526903;28;20204;-84
2021/08/23 22:05:32;;;;;;;11.17;10.17;;;18.40;99.90;;;;;;10525240;28;20253;-83
2021/08/23 22:10:35;;;;;;;11.53;10.60;;;18.30;99.90;;;;;;10522373;28;20210;-83
2021/08/23 22:15:41;;;;;;;9.80;9.00;;;18.30;99.90;;;;;;10523570;28;20266;-84
2021/08/23 22:20:43;;;;;;;10.00;9.20;;;18.20;99.90;;;;;;10522182;28;20200;-84
2021/08/23 22:25:45;;;;;;;9.97;9.23;;;18.10;99.90;;;;;;10521850;28;20239;-84
2021/08/23 22:30:49;;;;;;;10.70;9.80;;;18.00;99.90;;;;;;10527397;28;20196;-84
2021/08/23 22:35:51;;;;;;;10.40;9.60;;;18.00;99.90;;;;;;10539137;28;20220;-83
2021/08/23 22:40:54;;;;;;;11.00;10.10;;;17.90;99.90;;;;;;10522416;28;20220;-83
2021/08/23 22:45:57;;;;;;;10.50;9.67;;;17.80;99.90;;;;;;10526740;28;20220;-84
2021/08/23 22:50:59;;;;;;;9.80;8.90;;;17.80;99.90;;;;;;10541763;28;20257;-84
2021/08/23 22:56:01;;;;;;;8.90;8.10;;;17.70;99.90;;;;;;10507656;28;20230;-83
2021/08/23 23:01:06;;;;;;;8.60;7.90;;;17.70;99.90;;;;;;10528462;28;20239;-84
2021/08/23 23:06:11;;;;;;;8.43;7.80;;;17.60;99.90;;;;;;10510147;28;20589;-84
2021/08/23 23:11:13;;;;;;;7.90;7.30;;;17.60;99.90;;;;;;10543478;28;20650;-83
2021/08/23 23:16:16;;;;;;;8.37;7.67;;;17.50;99.90;;;;;;10527326;28;20246;-84
2021/08/23 23:21:18;;;;;;;8.03;7.27;;;17.50;99.90;;;;;;10509746;28;20212;-84
2021/08/23 23:26:26;;;;;;;8.13;7.43;;;17.50;99.90;;;;;;10526257;28;20207;-83
2021/08/23 23:31:30;;;;;;;8.27;7.67;;;17.50;99.90;;;;;;10528085;28;20230;-83
2021/08/23 23:36:32;;;;;;;8.23;7.63;;;17.50;99.90;;;;;;10526421;28;20816;-83
2021/08/23 23:41:34;;;;;;;8.30;7.60;;;17.60;99.90;;;;;;10511119;28;20229;-83
2021/08/23 23:46:38;;;;;;;8.23;7.53;;;17.60;99.90;;;;;;10547026;28;20212;-83
2021/08/23 23:51:40;;;;;;;9.30;8.50;;;17.70;99.90;;;;;;10548168;28;20208;-83
2021/08/23 23:56:45;;;;;;;9.63;8.83;;;17.70;99.90;;;;;;10510763;28;20609;-84
